Time;durP1;ratioP1;P1;durP2;ratioP2;P2;SDS_P1;SDS_P2;PMS_P1;PMS_P2;Temp;Humidity;BMP_temperature;BMP_pressure;BME280_temperature;BME280_humidity;BME280_pressure;Samples;Min_cycle;Max_cycle;Signal;HPM_P1;HPM_P2
2022/04/06 00:00:43;;;;;;;15.00;13.50;;;7.90;99.90;;;;;;5031814;28;20475;-74
2022/04/06 00:03:09;;;;;;;16.15;14.32;;;7.90;99.90;;;;;;5032088;28;20040;-73
2022/04/06 00:05:34;;;;;;;17.80;14.70;;;8.00;99.90;;;;;;5030614;28;20034;-72
2022/04/06 00:08:01;;;;;;;15.07;13.57;;;7.90;99.90;;;;;;5031972;28;20471;-73
2022/04/06 00:10:28;;;;;;;15.40;13.82;;;8.00;99.90;;;;;;5031611;28;20411;-74
2022/04/06 00:12:54;;;;;;;15.88;13.85;;;7.90;99.90;;;;;;5030570;28;20022;-73
2022/04/06 00:15:20;;;;;;;15.98;14.05;;;7.90;99.90;;;;;;5032492;28;20352;-75
2022/04/06 00:17:46;;;;;;;19.60;14.15;;;7.90;99.90;;;;;;5032452;28;20033;-77
2022/04/06 00:20:12;;;;;;;15.07;13.55;;;7.90;99.90;;;;;;5033941;28;20041;-75
2022/04/06 00:22:38;;;;;;;15.18;13.57;;;7.90;99.90;;;;;;5031869;28;20025;-75
2022/04/06 00:25:04;;;;;;;14.90;13.40;;;8.00;99.90;;;;;;5030547;28;20048;-75
2022/04/06 00:27:30;;;;;;;14.35;12.90;;;8.00;99.90;;;;;;5031666;28;20497;-75
2022/04/06 00:29:55;;;;;;;16.17;13.40;;;8.00;99.90;;;;;;5032066;28;20026;-74
2022/04/06 00:32:21;;;;;;;14.35;12.95;;;8.00;99.90;;;;;;5032556;28;20037;-73
2022/04/06 00:37:30;;;;;;;15.27;13.68;;;8.00;99.90;;;;;;5032713;28;20036;-72
2022/04/06 00:39:56;;;;;;;15.18;13.57;;;8.10;99.90;;;;;;5031755;28;20033;-72
2022/04/06 00:42:21;;;;;;;14.68;13.07;;;8.10;99.90;;;;;;5031430;28;20545;-74
2022/04/06 00:44:47;;;;;;;15.00;13.50;;;8.00;99.90;;;;;;5031484;28;20100;-73
2022/04/06 00:47:12;;;;;;;15.45;13.95;;;8.10;99.90;;;;;;5046898;28;20029;-73
2022/04/06 00:49:38;;;;;;;15.45;13.85;;;8.10;99.90;;;;;;5031446;28;20067;-73
2022/04/06 00:52:05;;;;;;;16.35;14.00;;;8.00;99.90;;;;;;5031370;28;20100;-73
2022/04/06 00:54:33;;;;;;;15.75;14.13;;;8.00;99.90;;;;;;5031416;28;20082;-72
2022/04/06 00:56:59;;;;;;;15.93;14.35;;;8.00;99.90;;;;;;5030327;28;20087;-73
2022/04/06 00:59:28;;;;;;;16.17;14.43;;;8.00;99.90;;;;;;5030088;28;20059;-73
2022/04/06 01:01:54;;;;;;;16.52;14.85;;;8.00;99.90;;;;;;5031082;28;20034;-73
2022/04/06 01:04:20;;;;;;;15.60;14.00;;;8.10;99.90;;;;;;5031382;28;20033;-74
2022/04/06 01:06:48;;;;;;;16.38;14.77;;;8.00;99.90;;;;;;5046485;28;20029;-75
2022/04/06 01:09:15;;;;;;;15.77;14.18;;;8.00;99.90;;;;;;5027363;28;20573;-74
2022/04/06 01:11:44;;;;;;;16.85;15.10;;;8.00;99.90;;;;;;5023614;28;20026;-74
2022/04/06 01:14:10;;;;;;;15.45;13.88;;;8.00;99.90;;;;;;5031242;28;20483;-74
2022/04/06 01:16:35;;;;;;;16.00;14.32;;;8.00;99.90;;;;;;5031272;28;20467;-74
2022/04/06 01:19:01;;;;;;;16.05;13.93;;;8.00;99.90;;;;;;5031224;28;20104;-72
2022/04/06 01:21:27;;;;;;;17.30;15.43;;;8.00;99.90;;;;;;5031321;28;20487;-72
2022/04/06 01:23:52;;;;;;;16.15;14.55;;;8.10;99.90;;;;;;5029732;28;20483;-74
2022/04/06 01:26:19;;;;;;;16.25;14.63;;;8.10;99.90;;;;;;5033291;28;20030;-73
2022/04/06 01:38:50;;;;;;;16.05;14.45;;;8.00;99.90;;;;;;5020536;28;20040;-74
2022/04/06 01:41:16;;;;;;;16.40;14.80;;;8.00;99.90;;;;;;5038476;28;20483;-74
2022/04/06 01:43:41;;;;;;;17.05;15.32;;;8.00;99.90;;;;;;5044258;28;20051;-74
2022/04/06 01:46:07;;;;;;;15.45;13.95;;;8.10;99.90;;;;;;5039517;28;20036;-74
2022/04/06 01:52:11;;;;;;;16.77;15.18;;;8.00;99.90;;;;;;5057691;28;20028;-73
2022/04/06 01:54:02;;;;;;;17.35;15.55;;;8.10;99.90;;;;;;5034231;28;20560;-74
2022/04/06 01:56:27;;;;;;;15.68;14.07;;;8.10;99.90;;;;;;5052184;28;20060;-73
2022/04/06 01:58:53;;;;;;;15.70;14.10;;;8.10;99.90;;;;;;5037113;28;20143;-73
2022/04/06 02:01:18;;;;;;;16.17;14.57;;;8.10;99.90;;;;;;5045434;28;20483;-74
2022/04/06 02:03:44;;;;;;;15.23;13.82;;;8.10;99.90;;;;;;5040316;28;20056;-72
2022/04/06 02:06:10;;;;;;;15.48;13.95;;;8.10;99.90;;;;;;5032874;28;20021;-74
2022/04/06 02:08:36;;;;;;;15.05;13.63;;;8.10;99.90;;;;;;5034106;28;20463;-74
2022/04/06 02:11:01;;;;;;;15.45;13.95;;;8.10;99.90;;;;;;5033817;28;20014;-73
2022/04/06 02:13:27;;;;;;;14.63;13.23;;;8.10;99.90;;;;;;5034093;28;20028;-73
2022/04/06 02:15:52;;;;;;;16.13;14.63;;;8.10;99.90;;;;;;5033948;28;20387;-74
2022/04/06 02:18:18;;;;;;;15.60;14.10;;;8.10;99.90;;;;;;5034114;28;20037;-74
2022/04/06 02:20:44;;;;;;;15.93;14.30;;;8.10;99.90;;;;;;5033489;28;20044;-73
2022/04/06 02:23:10;;;;;;;16.15;14.43;;;8.10;99.90;;;;;;5033830;28;20021;-72
2022/04/06 02:25:36;;;;;;;18.30;16.45;;;8.10;99.90;;;;;;5033718;28;20017;-72
2022/04/06 02:28:01;;;;;;;18.00;16.20;;;8.10;99.90;;;;;;5033735;28;20029;-73
2022/04/06 02:30:27;;;;;;;18.65;16.75;;;8.10;99.90;;;;;;5033238;28;20026;-73
2022/04/06 02:32:52;;;;;;;19.17;17.23;;;8.10;99.90;;;;;;5033859;28;20079;-71
2022/04/06 02:35:18;;;;;;;17.95;16.05;;;8.10;99.90;;;;;;5033636;28;20025;-73
2022/04/06 02:37:44;;;;;;;16.70;15.00;;;8.10;99.90;;;;;;5033595;28;20053;-71
2022/04/06 02:40:11;;;;;;;15.20;13.68;;;8.10;99.90;;;;;;5033466;28;20033;-73
2022/04/06 02:42:37;;;;;;;14.52;13.02;;;8.10;99.90;;;;;;5033308;28;20499;-75
2022/04/06 02:45:03;;;;;;;14.82;13.00;;;8.20;99.90;;;;;;5032046;28;20075;-75
2022/04/06 02:47:28;;;;;;;15.25;13.75;;;8.20;99.90;;;;;;5033321;28;20021;-73
2022/04/06 02:49:54;;;;;;;15.38;13.88;;;8.10;99.90;;;;;;5033519;28;20108;-76
2022/04/06 02:52:19;;;;;;;17.83;14.90;;;8.20;99.90;;;;;;5031797;28;20017;-74
2022/04/06 02:54:45;;;;;;;16.05;14.35;;;8.10;99.90;;;;;;5048583;28;20551;-73
2022/04/06 02:57:10;;;;;;;16.00;14.38;;;8.10;99.90;;;;;;5032255;28;20030;-75
2022/04/06 02:59:39;;;;;;;15.50;13.90;;;8.10;99.90;;;;;;5019495;28;20033;-73
2022/04/06 03:02:05;;;;;;;14.80;13.27;;;8.20;99.90;;;;;;5032852;28;20025;-74
2022/04/06 03:04:30;;;;;;;14.52;13.13;;;8.20;99.90;;;;;;5033108;28;20368;-73
2022/04/06 03:06:56;;;;;;;15.23;13.32;;;8.10;99.90;;;;;;5032912;28;20112;-73
2022/04/06 03:09:21;;;;;;;14.90;13.40;;;8.10;99.90;;;;;;5032961;28;20022;-72
2022/04/06 03:11:47;;;;;;;15.48;13.88;;;8.10;99.90;;;;;;5032696;28;20025;-74
2022/04/06 03:14:12;;;;;;;15.88;14.27;;;8.20;99.90;;;;;;5032833;28;20024;-74
2022/04/06 03:16:38;;;;;;;14.88;13.38;;;8.10;99.90;;;;;;5032880;28;20021;-74
2022/04/06 03:19:03;;;;;;;15.13;13.52;;;8.10;99.90;;;;;;5031476;28;20412;-73
2022/04/06 03:21:29;;;;;;;15.10;13.60;;;8.10;99.90;;;;;;5032326;28;20076;-72
2022/04/06 03:23:55;;;;;;;14.57;13.07;;;8.10;99.90;;;;;;5031460;28;20119;-74
2022/04/06 03:26:20;;;;;;;14.48;13.00;;;8.20;99.90;;;;;;5032561;28;20061;-73
2022/04/06 03:28:46;;;;;;;15.82;13.27;;;8.20;99.90;;;;;;5032543;28;20361;-73
2022/04/06 03:31:11;;;;;;;15.93;13.25;;;8.10;99.90;;;;;;5032167;28;20036;-72
2022/04/06 03:33:37;;;;;;;14.68;13.18;;;8.10;99.90;;;;;;5032541;28;20033;-72
2022/04/06 03:36:03;;;;;;;15.85;14.13;;;8.10;99.90;;;;;;5032588;28;20033;-72
2022/04/06 03:38:29;;;;;;;15.40;13.80;;;8.10;99.90;;;;;;5032357;28;20059;-74
2022/04/06 03:40:54;;;;;;;15.38;13.80;;;8.10;99.90;;;;;;5032107;28;20463;-73
2022/04/06 03:43:21;;;;;;;14.30;12.93;;;8.20;99.90;;;;;;5032190;28;20099;-73
2022/04/06 03:45:46;;;;;;;15.48;13.88;;;8.20;99.90;;;;;;5032439;28;20026;-74
2022/04/06 03:48:12;;;;;;;16.20;14.60;;;8.20;99.90;;;;;;5032152;28;20025;-73
2022/04/06 03:50:38;;;;;;;16.08;14.43;;;8.10;99.90;;;;;;5031951;28;20037;-73
2022/04/06 03:53:03;;;;;;;15.80;14.20;;;8.20;99.90;;;;;;5032164;28;20022;-73
2022/04/06 03:55:29;;;;;;;15.75;14.05;;;8.20;99.90;;;;;;5019955;28;20049;-74
2022/04/06 03:57:54;;;;;;;17.30;15.30;;;8.10;99.90;;;;;;5029667;28;20083;-73
2022/04/06 04:00:20;;;;;;;16.38;14.55;;;8.10;99.90;;;;;;5030545;28;20091;-73
2022/04/06 04:02:46;;;;;;;19.55;16.15;;;8.10;99.90;;;;;;5031951;28;20025;-74
2022/04/06 04:05:12;;;;;;;17.40;15.70;;;8.00;99.90;;;;;;5032148;28;20040;-72
2022/04/06 04:07:37;;;;;;;18.52;16.63;;;8.10;99.90;;;;;;5031847;28;20033;-72
2022/04/06 04:10:10;;;;;;;17.90;16.08;;;8.00;99.90;;;;;;5031564;28;20034;-72
2022/04/06 04:12:36;;;;;;;19.20;17.30;;;8.00;99.90;;;;;;5031552;28;20037;-72
2022/04/06 04:15:03;;;;;;;18.55;16.65;;;8.10;99.90;;;;;;5031893;28;20490;-72
2022/04/06 04:17:29;;;;;;;18.58;16.60;;;8.00;99.90;;;;;;5031676;28;20033;-72
2022/04/06 04:19:54;;;;;;;19.75;17.65;;;8.00;99.90;;;;;;5033492;22;20037;-73
2022/04/06 04:22:20;;;;;;;20.33;18.23;;;8.00;99.90;;;;;;4990234;28;20094;-73
2022/04/06 04:24:45;;;;;;;20.52;18.33;;;8.10;99.90;;;;;;4991917;28;20018;-73
2022/04/06 04:27:11;;;;;;;20.40;18.20;;;8.10;99.90;;;;;;4972841;28;20396;-73
2022/04/06 04:29:36;;;;;;;19.85;17.85;;;8.10;99.90;;;;;;4980675;28;20505;-73
2022/04/06 04:32:02;;;;;;;20.42;18.33;;;8.00;99.90;;;;;;4992082;28;20037;-73
2022/04/06 04:34:28;;;;;;;19.95;17.95;;;8.10;99.90;;;;;;4979710;28;20026;-73
2022/04/06 04:36:53;;;;;;;20.90;18.80;;;8.10;99.90;;;;;;4972970;28;20058;-73
2022/04/06 04:39:19;;;;;;;21.67;19.08;;;8.10;99.90;;;;;;4971673;28;20059;-73
2022/04/06 04:41:45;;;;;;;21.45;19.17;;;8.10;99.90;;;;;;4991821;28;20638;-73
2022/04/06 04:44:12;;;;;;;22.05;19.75;;;8.10;99.90;;;;;;4978167;28;20030;-73
2022/04/06 04:46:37;;;;;;;24.08;20.90;;;8.00;99.90;;;;;;4977824;28;20073;-73
2022/04/06 04:49:03;;;;;;;24.45;20.85;;;8.10;99.90;;;;;;4979429;28;20062;-73
2022/04/06 04:51:28;;;;;;;23.13;20.73;;;8.10;99.90;;;;;;4985487;28;20037;-73
2022/04/06 04:53:57;;;;;;;23.38;20.92;;;8.00;99.90;;;;;;4972865;28;20027;-73
2022/04/06 04:56:28;;;;;;;23.70;21.23;;;8.00;99.90;;;;;;4979176;28;20046;-73
2022/04/06 04:58:54;;;;;;;22.02;19.73;;;8.00;99.90;;;;;;4992149;28;20033;-73
2022/04/06 05:01:19;;;;;;;21.15;19.02;;;8.00;99.90;;;;;;4991794;28;20039;-73
2022/04/06 05:03:45;;;;;;;22.08;19.77;;;7.90;99.90;;;;;;4992007;28;20038;-73
2022/04/06 05:06:10;;;;;;;21.30;18.98;;;8.00;99.90;;;;;;4992047;28;20431;-73
2022/04/06 05:08:36;;;;;;;56.80;47.83;;;7.90;99.90;;;;;;4990685;28;20027;-73
2022/04/06 05:11:01;;;;;;;24.67;22.08;;;7.90;99.90;;;;;;4991814;28;20468;-73
2022/04/06 05:13:27;;;;;;;22.95;20.67;;;7.90;99.90;;;;;;4992082;28;20026;-73
2022/04/06 05:15:53;;;;;;;58.38;53.28;;;7.90;99.90;;;;;;4992055;28;20033;-73
2022/04/06 05:18:18;;;;;;;38.33;34.95;;;7.90;99.90;;;;;;4979357;28;20034;-73
2022/04/06 05:20:44;;;;;;;26.13;23.63;;;7.90;99.90;;;;;;4983872;28;20102;-73
2022/04/06 05:23:09;;;;;;;25.83;23.33;;;7.80;99.90;;;;;;4996329;28;20380;-73
2022/04/06 05:25:35;;;;;;;37.33;33.92;;;7.80;99.90;;;;;;5015175;28;20033;-73
2022/04/06 05:28:01;;;;;;;42.90;38.88;;;7.90;99.90;;;;;;5015232;28;20096;-73
2022/04/06 05:30:27;;;;;;;38.45;34.95;;;7.90;99.90;;;;;;5007739;28;20033;-73
2022/04/06 05:32:54;;;;;;;26.80;24.00;;;7.90;99.90;;;;;;5011500;28;20442;-74
2022/04/06 05:35:23;;;;;;;24.80;22.20;;;7.90;99.90;;;;;;5008093;28;20026;-74
2022/04/06 05:37:49;;;;;;;25.15;22.23;;;7.90;99.90;;;;;;4995204;28;20040;-73
2022/04/06 05:40:16;;;;;;;23.85;21.30;;;7.90;99.90;;;;;;4995886;28;20110;-74
2022/04/06 05:42:42;;;;;;;25.20;22.60;;;8.00;99.90;;;;;;4995262;28;20031;-73
2022/04/06 05:45:08;;;;;;;23.40;20.98;;;8.00;99.90;;;;;;4977883;28;20049;-73
2022/04/06 05:47:35;;;;;;;23.00;20.75;;;8.10;99.90;;;;;;4995180;28;20511;-73
2022/04/06 05:50:01;;;;;;;22.25;19.95;;;8.00;99.90;;;;;;4995192;28;20030;-74
2022/04/06 05:52:27;;;;;;;20.65;18.40;;;8.10;99.90;;;;;;4994795;28;20034;-73
2022/04/06 05:54:52;;;;;;;21.67;19.25;;;8.10;99.90;;;;;;4995098;28;20080;-73
2022/04/06 05:57:19;;;;;;;21.38;18.98;;;8.10;99.90;;;;;;4995075;28;20041;-73
2022/04/06 05:59:45;;;;;;;20.88;18.77;;;8.10;99.90;;;;;;4977440;28;20026;-73
2022/04/06 06:02:11;;;;;;;20.85;18.65;;;8.10;99.90;;;;;;4999199;28;20025;-76
2022/04/06 06:04:38;;;;;;;21.52;18.85;;;8.20;99.90;;;;;;4996839;28;20149;-74
2022/04/06 06:07:05;;;;;;;19.65;17.65;;;8.20;99.90;;;;;;5013975;28;20049;-73
2022/04/06 06:09:31;;;;;;;20.17;18.17;;;8.30;99.90;;;;;;5007522;28;20018;-73
2022/04/06 06:11:58;;;;;;;20.13;18.08;;;8.20;99.90;;;;;;5015170;28;20037;-74
2022/04/06 06:14:24;;;;;;;18.42;16.63;;;8.20;99.90;;;;;;5015087;28;20109;-73
2022/04/06 06:16:49;;;;;;;20.48;18.27;;;8.30;99.90;;;;;;5011861;28;20115;-73
2022/04/06 06:19:16;;;;;;;19.77;17.75;;;8.30;99.90;;;;;;5014685;28;20026;-74
2022/04/06 06:21:41;;;;;;;19.60;17.70;;;8.20;99.90;;;;;;5010257;28;20096;-74
2022/04/06 06:24:07;;;;;;;19.05;17.05;;;8.30;99.90;;;;;;4991221;28;20035;-73
2022/04/06 06:26:37;;;;;;;18.42;16.55;;;8.20;99.90;;;;;;5012287;28;20061;-73
2022/04/06 06:29:04;;;;;;;18.15;16.33;;;8.30;99.90;;;;;;4984685;28;20037;-73
2022/04/06 06:31:30;;;;;;;17.75;15.98;;;8.40;99.90;;;;;;4991445;28;20018;-73
2022/04/06 06:33:56;;;;;;;18.17;16.33;;;8.40;99.90;;;;;;5010126;28;20038;-73
2022/04/06 06:36:23;;;;;;;18.10;16.20;;;8.40;99.90;;;;;;5014714;28;20048;-73
2022/04/06 06:38:52;;;;;;;18.75;16.80;;;8.40;99.90;;;;;;5004541;28;20030;-73
2022/04/06 06:41:19;;;;;;;17.40;15.77;;;8.40;99.90;;;;;;5012610;28;20061;-74
2022/04/06 06:43:46;;;;;;;17.67;15.88;;;8.40;99.90;;;;;;4997532;28;20087;-74
2022/04/06 06:46:12;;;;;;;17.60;15.32;;;8.50;99.90;;;;;;4995765;28;20050;-73
2022/04/06 06:48:37;;;;;;;23.25;16.13;;;8.50;99.90;;;;;;5003467;28;20459;-73
2022/04/06 06:51:04;;;;;;;16.35;14.75;;;8.60;99.90;;;;;;4993802;28;20034;-73
2022/04/06 06:53:30;;;;;;;16.45;14.85;;;8.60;99.90;;;;;;4976651;28;20093;-73
2022/04/06 06:55:55;;;;;;;16.15;14.45;;;8.60;99.90;;;;;;4997604;28;20101;-73
2022/04/06 06:58:21;;;;;;;16.75;15.02;;;8.70;99.90;;;;;;5021633;28;20026;-73
2022/04/06 07:00:46;;;;;;;18.73;16.73;;;8.70;99.90;;;;;;5013182;28;20033;-73
2022/04/06 07:03:12;;;;;;;18.13;16.20;;;8.70;99.90;;;;;;5013362;28;20029;-73
2022/04/06 07:05:37;;;;;;;16.48;14.77;;;8.70;99.90;;;;;;5013154;28;20380;-73
2022/04/06 07:08:03;;;;;;;15.23;13.73;;;8.70;99.90;;;;;;5013179;28;20515;-73
2022/04/06 07:10:29;;;;;;;15.90;14.20;;;8.80;99.90;;;;;;5014764;28;20034;-73
2022/04/06 07:12:55;;;;;;;16.63;14.93;;;8.90;99.90;;;;;;5013251;28;20026;-73
2022/04/06 07:15:22;;;;;;;16.70;15.02;;;8.90;99.90;;;;;;4999949;28;20032;-73
2022/04/06 07:17:57;;;;;;;15.85;14.23;;;8.90;99.90;;;;;;5012939;28;20108;-73
2022/04/06 07:20:25;;;;;;;19.17;17.17;;;8.90;99.90;;;;;;4994813;28;20030;-73
2022/04/06 07:22:51;;;;;;;16.50;14.80;;;8.90;99.90;;;;;;4976007;28;20510;-73
2022/04/06 07:25:17;;;;;;;15.50;13.85;;;9.00;99.90;;;;;;5011108;28;20034;-73
2022/04/06 07:27:43;;;;;;;15.65;13.98;;;9.10;99.90;;;;;;5028105;28;20032;-73
2022/04/06 07:30:10;;;;;;;15.13;13.63;;;9.10;99.90;;;;;;5012772;28;20026;-73
2022/04/06 07:32:36;;;;;;;16.48;14.15;;;9.10;99.90;;;;;;5012467;28;20026;-73
2022/04/06 07:35:04;;;;;;;15.10;13.63;;;9.10;99.90;;;;;;4999597;28;20034;-73
2022/04/06 07:37:37;;;;;;;14.75;13.25;;;9.20;99.90;;;;;;5012794;28;20030;-73
2022/04/06 07:40:04;;;;;;;14.57;13.15;;;9.20;99.90;;;;;;4993457;28;20034;-73
2022/04/06 07:42:29;;;;;;;14.43;12.93;;;9.20;99.90;;;;;;4975311;28;20033;-73
2022/04/06 07:44:56;;;;;;;15.38;13.82;;;9.30;99.90;;;;;;4998663;28;20030;-73
2022/04/06 07:47:21;;;;;;;13.60;12.13;;;9.30;99.90;;;;;;5000040;28;20037;-73
2022/04/06 07:49:47;;;;;;;14.85;12.43;;;9.40;99.90;;;;;;5012146;28;20025;-74
2022/04/06 07:52:12;;;;;;;15.15;12.60;;;9.50;99.90;;;;;;4982163;28;20022;-73
2022/04/06 07:54:38;;;;;;;12.52;10.90;;;9.50;99.90;;;;;;4992867;28;20026;-73
2022/04/06 07:57:03;;;;;;;13.90;11.07;;;9.60;99.90;;;;;;4975456;28;20484;-73
2022/04/06 07:59:29;;;;;;;11.23;9.95;;;9.70;99.90;;;;;;4992675;28;20030;-73
2022/04/06 08:01:54;;;;;;;10.98;9.85;;;9.70;99.90;;;;;;4992527;28;20038;-73
2022/04/06 08:04:20;;;;;;;10.95;9.75;;;9.80;99.90;;;;;;4975223;28;20112;-73
2022/04/06 08:06:45;;;;;;;9.43;8.40;;;10.00;99.90;;;;;;4992704;28;20118;-73
2022/04/06 08:09:12;;;;;;;10.45;9.30;;;10.00;99.90;;;;;;5011385;28;20033;-73
2022/04/06 08:11:38;;;;;;;9.35;8.35;;;10.10;99.90;;;;;;4982335;28;20022;-73
2022/04/06 08:14:04;;;;;;;11.15;10.05;;;10.20;99.90;;;;;;4998102;28;20041;-73
2022/04/06 08:16:29;;;;;;;20.38;16.50;;;10.20;99.90;;;;;;5012190;28;20030;-73
2022/04/06 08:18:55;;;;;;;15.32;11.50;;;10.30;99.90;;;;;;4989422;28;20109;-73
2022/04/06 08:21:20;;;;;;;8.77;7.85;;;10.30;99.90;;;;;;4992112;28;20546;-72
2022/04/06 08:23:46;;;;;;;43.47;32.45;;;10.40;99.90;;;;;;4997884;28;20050;-73
2022/04/06 08:26:12;;;;;;;24.38;17.63;;;10.40;99.90;;;;;;5011925;28;20022;-73
2022/04/06 08:28:38;;;;;;;8.70;7.40;;;10.50;99.90;;;;;;4993399;28;20034;-74
2022/04/06 08:31:05;;;;;;;10.40;7.82;;;10.50;99.90;;;;;;4993346;28;20113;-73
2022/04/06 08:33:30;;;;;;;9.32;7.68;;;10.50;99.90;;;;;;4994355;28;20369;-73
2022/04/06 08:35:56;;;;;;;8.10;7.07;;;10.60;99.90;;;;;;5012038;28;20053;-73
2022/04/06 08:38:21;;;;;;;8.80;6.75;;;10.80;99.90;;;;;;4993741;28;20034;-73
2022/04/06 08:40:48;;;;;;;6.95;6.25;;;10.80;99.90;;;;;;4974669;28;20113;-73
2022/04/06 08:43:15;;;;;;;8.30;6.60;;;10.80;99.90;;;;;;4992134;28;20030;-73
2022/04/06 08:45:40;;;;;;;6.90;6.13;;;10.80;99.90;;;;;;4992017;28;20061;-73
2022/04/06 08:48:07;;;;;;;6.97;6.28;;;10.90;99.90;;;;;;4992220;28;20502;-73
2022/04/06 08:50:36;;;;;;;7.30;6.20;;;11.00;99.90;;;;;;4985893;28;20487;-73
2022/04/06 08:53:03;;;;;;;8.38;6.60;;;11.10;99.90;;;;;;5006672;28;20041;-73
2022/04/06 08:55:30;;;;;;;8.55;6.95;;;11.10;99.90;;;;;;4993398;28;20029;-73
2022/04/06 08:57:56;;;;;;;7.10;6.40;;;11.10;99.90;;;;;;4996014;28;20031;-73
2022/04/06 09:00:22;;;;;;;6.93;6.07;;;11.00;99.90;;;;;;4995929;28;20030;-73
2022/04/06 09:02:48;;;;;;;7.95;6.05;;;10.80;99.90;;;;;;4996093;28;20456;-73
2022/04/06 09:05:14;;;;;;;7.95;6.22;;;10.70;99.90;;;;;;4996086;28;20022;-73
2022/04/06 09:07:41;;;;;;;8.45;6.80;;;10.70;99.90;;;;;;4995909;28;20480;-73
2022/04/06 09:10:07;;;;;;;7.80;6.07;;;10.70;99.90;;;;;;4995710;28;20077;-73
2022/04/06 09:12:33;;;;;;;6.32;5.30;;;10.70;99.90;;;;;;4995567;28;20093;-73
2022/04/06 09:15:12;;;;;;;7.10;5.90;;;10.70;99.90;;;;;;4978511;28;20456;-73
2022/04/06 09:17:49;;;;;;;6.88;6.15;;;10.80;99.90;;;;;;5002840;28;20506;-73
2022/04/06 09:20:15;;;;;;;7.88;5.93;;;10.80;99.90;;;;;;5030141;28;20038;-73
2022/04/06 09:22:41;;;;;;;7.45;6.38;;;10.80;99.90;;;;;;5015349;28;20480;-73
2022/04/06 09:25:07;;;;;;;9.30;6.57;;;10.80;99.90;;;;;;4997393;28;20041;-74
2022/04/06 09:27:33;;;;;;;7.78;5.80;;;10.70;99.90;;;;;;5015034;28;20080;-73
2022/04/06 09:30:02;;;;;;;7.90;5.82;;;10.80;99.90;;;;;;4998382;28;20026;-73
2022/04/06 09:32:28;;;;;;;7.00;6.20;;;10.90;99.90;;;;;;5008150;28;20025;-73
2022/04/06 09:34:53;;;;;;;8.52;6.00;;;10.90;99.90;;;;;;5015023;28;20026;-73
2022/04/06 09:37:26;;;;;;;9.45;6.97;;;11.00;99.90;;;;;;5015072;28;20422;-73
2022/04/06 09:39:53;;;;;;;10.15;6.60;;;11.20;99.90;;;;;;4997109;28;20034;-73
2022/04/06 09:42:24;;;;;;;7.72;6.55;;;11.20;99.90;;;;;;4995274;28;20033;-73
2022/04/06 09:47:39;;;;;;;7.40;6.53;;;11.70;99.90;;;;;;4995173;28;20495;-73
2022/04/06 09:50:22;;;;;;;7.45;6.68;;;11.40;99.90;;;;;;5003784;28;20503;-73
2022/04/06 09:52:52;;;;;;;8.30;6.50;;;11.30;99.90;;;;;;4997156;28;20029;-73
2022/04/06 09:55:21;;;;;;;7.82;7.03;;;11.40;99.90;;;;;;4995099;28;20069;-73
2022/04/06 09:57:49;;;;;;;7.93;6.57;;;11.40;99.90;;;;;;5008210;28;20034;-73
2022/04/06 10:00:18;;;;;;;8.75;6.68;;;11.50;99.90;;;;;;5007092;28;20064;-73
2022/04/06 10:02:47;;;;;;;7.57;6.55;;;11.60;99.90;;;;;;4995568;28;20033;-73
2022/04/06 10:05:14;;;;;;;10.23;6.75;;;11.60;99.90;;;;;;5007718;28;20057;-73
2022/04/06 10:07:41;;;;;;;8.15;6.78;;;11.60;99.90;;;;;;5008859;28;20018;-73
2022/04/06 10:10:06;;;;;;;8.45;6.47;;;11.70;99.90;;;;;;4983169;28;20554;-73
2022/04/06 10:12:33;;;;;;;10.50;7.28;;;11.80;99.90;;;;;;5002622;28;20030;-73
2022/04/06 10:15:00;;;;;;;8.35;7.25;;;11.90;99.90;;;;;;5009373;28;20022;-73
2022/04/06 10:17:29;;;;;;;10.25;7.22;;;12.00;99.90;;;;;;5002598;28;20026;-73
2022/04/06 10:20:20;;;;;;;8.63;7.78;;;11.80;99.90;;;;;;4985431;28;20058;-73
2022/04/06 10:23:01;;;;;;;8.68;7.55;;;11.60;99.90;;;;;;4999079;28;20030;-73
2022/04/06 10:26:02;;;;;;;9.23;6.63;;;11.70;99.90;;;;;;5011051;28;20325;-72
2022/04/06 10:28:33;;;;;;;7.47;6.50;;;11.90;99.90;;;;;;4993451;28;20022;-72
2022/04/06 10:31:24;;;;;;;9.43;6.75;;;12.10;99.90;;;;;;5006152;28;20511;-72
2022/04/06 10:33:51;;;;;;;8.55;6.95;;;12.10;99.90;;;;;;5021645;28;20153;-72
2022/04/06 10:36:20;;;;;;;9.45;6.50;;;12.30;99.90;;;;;;5024742;28;20480;-72
2022/04/06 10:39:07;;;;;;;7.63;5.80;;;12.30;99.90;;;;;;5009473;28;20468;-72
2022/04/06 10:41:42;;;;;;;9.70;6.03;;;12.10;99.90;;;;;;5011900;28;20021;-72
2022/04/06 10:44:36;;;;;;;8.35;6.40;;;12.50;99.90;;;;;;5010219;28;20041;-73
2022/04/06 10:47:09;;;;;;;7.18;5.35;;;12.30;99.90;;;;;;4996329;28;20030;-73
2022/04/06 10:49:35;;;;;;;7.18;5.95;;;12.50;99.90;;;;;;5003306;28;20018;-73
2022/04/06 10:52:26;;;;;;;7.68;6.32;;;12.70;99.90;;;;;;5005171;28;20025;-73
2022/04/06 10:54:52;;;;;;;7.20;5.78;;;13.10;99.90;;;;;;5010099;28;20025;-73
2022/04/06 10:57:19;;;;;;;7.53;5.30;;;13.20;99.90;;;;;;5000478;28;20030;-73
2022/04/06 11:00:11;;;;;;;6.13;5.47;;;13.20;99.90;;;;;;5005417;28;20018;-72
2022/04/06 11:02:48;;;;;;;7.43;5.85;;;13.20;99.90;;;;;;4981074;28;20026;-72
2022/04/06 11:05:53;;;;;;;6.35;4.65;;;13.00;99.90;;;;;;5005035;28;20026;-72
2022/04/06 11:11:45;;;;;;;5.18;4.60;;;12.70;99.90;;;;;;5004934;28;20024;-72
2022/04/06 11:14:12;;;;;;;6.35;5.22;;;12.90;99.90;;;;;;5005023;28;20026;-72
2022/04/06 11:16:43;;;;;;;5.93;5.20;;;13.00;99.90;;;;;;4989386;28;20034;-72
2022/04/06 11:19:08;;;;;;;7.25;5.55;;;12.90;99.90;;;;;;5006706;28;20069;-72
2022/04/06 11:21:34;;;;;;;6.30;5.05;;;12.80;99.90;;;;;;5001379;28;20058;-73
2022/04/06 11:24:00;;;;;;;7.22;5.10;;;12.70;99.90;;;;;;5002506;28;20022;-73
2022/04/06 11:26:26;;;;;;;8.38;5.38;;;12.80;99.90;;;;;;5004836;28;20025;-72
2022/04/06 11:28:58;;;;;;;7.50;5.15;;;12.70;99.90;;;;;;4987297;28;20368;-72
2022/04/06 11:31:23;;;;;;;6.30;5.30;;;12.60;99.90;;;;;;5007759;28;20018;-72
2022/04/06 11:33:49;;;;;;;6.13;5.47;;;12.80;99.90;;;;;;5009699;28;20448;-73
2022/04/06 11:36:16;;;;;;;7.60;5.50;;;12.90;99.90;;;;;;5021296;28;20017;-73
2022/04/06 11:38:42;;;;;;;5.35;4.85;;;12.90;99.90;;;;;;5000355;28;20040;-73
2022/04/06 11:41:08;;;;;;;5.07;4.57;;;12.90;99.90;;;;;;5002720;28;20393;-73
2022/04/06 11:43:40;;;;;;;5.70;4.78;;;13.50;99.90;;;;;;5000752;28;20025;-73
2022/04/06 11:46:06;;;;;;;6.95;5.18;;;13.00;99.90;;;;;;5002950;28;20030;-73
2022/04/06 11:48:42;;;;;;;5.65;4.43;;;13.00;99.90;;;;;;4986988;28;20360;-73
2022/04/06 11:51:08;;;;;;;6.80;5.20;;;13.50;99.90;;;;;;5001405;28;20394;-73
2022/04/06 11:53:36;;;;;;;6.55;4.88;;;13.10;99.90;;;;;;4989312;28;20017;-73
2022/04/06 11:56:03;;;;;;;5.93;4.25;;;12.70;99.90;;;;;;5003878;28;20476;-73
2022/04/06 11:58:43;;;;;;;6.88;4.20;;;12.70;99.90;;;;;;5001601;28;20014;-72
2022/04/06 12:01:14;;;;;;;6.70;4.20;;;13.20;99.90;;;;;;5003852;28;20018;-73
2022/04/06 12:03:42;;;;;;;5.85;3.97;;;13.30;99.90;;;;;;4994779;28;20026;-73
2022/04/06 12:06:10;;;;;;;5.18;3.90;;;13.60;99.90;;;;;;5001442;28;20029;-73
2022/04/06 12:08:36;;;;;;;5.95;4.10;;;13.30;99.90;;;;;;5000760;28;20025;-73
2022/04/06 12:11:02;;;;;;;4.05;3.35;;;13.20;99.90;;;;;;4984896;28;20163;-73
2022/04/06 12:13:31;;;;;;;4.57;3.38;;;12.90;99.90;;;;;;4997716;28;20523;-73
2022/04/06 12:15:57;;;;;;;6.43;3.63;;;13.30;99.90;;;;;;5001602;28;20545;-74
2022/04/06 12:18:25;;;;;;;4.60;3.55;;;13.20;99.90;;;;;;4980460;28;20034;-73
2022/04/06 12:20:51;;;;;;;5.40;3.72;;;13.30;99.90;;;;;;5003689;28;20022;-73
2022/04/06 12:23:19;;;;;;;4.10;3.42;;;14.30;99.90;;;;;;5011716;28;20404;-73
2022/04/06 12:25:46;;;;;;;6.70;3.08;;;15.10;99.90;;;;;;5011191;28;20452;-73
2022/04/06 12:28:12;;;;;;;4.55;3.40;;;15.10;99.90;;;;;;5003381;28;20489;-74
2022/04/06 12:31:01;;;;;;;3.92;3.20;;;13.90;99.90;;;;;;5003321;28;20022;-74
2022/04/06 12:33:36;;;;;;;5.43;4.05;;;13.70;99.90;;;;;;5004917;28;20014;-74
2022/04/06 12:36:06;;;;;;;5.47;3.47;;;14.20;99.90;;;;;;4989457;28;20104;-73
2022/04/06 12:38:32;;;;;;;3.70;3.40;;;13.90;99.90;;;;;;5004101;28;20040;-73
2022/04/06 12:41:11;;;;;;;5.03;2.67;;;13.70;99.90;;;;;;5002356;28;20476;-74
2022/04/06 12:43:44;;;;;;;5.68;3.20;;;13.70;99.90;;;;;;5000315;28;20022;-75
2022/04/06 12:46:10;;;;;;;3.65;2.72;;;14.00;99.90;;;;;;5000617;28;20113;-73
2022/04/06 12:48:35;;;;;;;7.53;3.25;;;13.60;99.90;;;;;;5000281;28;20480;-73
2022/04/06 12:51:17;;;;;;;3.75;3.22;;;13.40;99.90;;;;;;5001194;28;20128;-73
2022/04/06 12:53:50;;;;;;;6.55;4.13;;;13.20;99.90;;;;;;4986071;28;20014;-73
2022/04/06 12:56:23;;;;;;;5.38;3.17;;;13.00;99.90;;;;;;5003575;28;20112;-73
2022/04/06 12:59:11;;;;;;;2.92;2.70;;;13.30;99.90;;;;;;4993894;28;20091;-74
2022/04/06 13:01:49;;;;;;;4.53;2.80;;;13.80;99.90;;;;;;5005462;28;20057;-73
2022/04/06 13:04:15;;;;;;;3.75;3.00;;;13.60;99.90;;;;;;5011647;28;20022;-74